createdAt,value
2018-09-25T00:00:08.026Z,1.50
2018-09-25T00:10:18.666Z,1.10
2018-09-25T00:20:14.049Z,1.03
2018-09-25T00:23:20.420Z,1.25
2018-09-25T00:26:26.001Z,0.90
2018-09-25T00:33:04.264Z,1.00
2018-09-25T00:36:11.030Z,0.80
2018-09-25T00:39:18.664Z,1.90
2018-09-25T00:45:56.934Z,1.17
2018-09-25T00:49:02.503Z,0.80
2018-09-25T00:52:12.280Z,0.90
2018-09-25T00:55:18.229Z,1.35
2018-09-25T00:58:24.174Z,1.00
2018-09-25T01:04:57.963Z,1.30
2018-09-25T01:08:03.701Z,1.17
2018-09-25T01:24:54.842Z,1.13
2018-09-25T01:28:01.688Z,0.90
2018-09-25T01:31:08.395Z,0.83
2018-09-25T01:41:03.067Z,1.15
2018-09-25T01:50:58.415Z,0.90
2018-09-25T01:54:04.243Z,1.20
2018-09-25T01:57:09.855Z,1.07
2018-09-25T02:00:23.842Z,1.17
2018-09-25T02:06:58.121Z,0.80
2018-09-25T02:20:17.754Z,1.20
2018-09-25T02:26:51.851Z,0.80
2018-09-25T02:29:59.107Z,1.63
2018-09-25T02:33:06.876Z,1.40
2018-09-25T02:43:04.219Z,1.00
2018-09-25T02:46:11.063Z,1.20
2018-09-25T03:03:01.093Z,0.80
2018-09-25T03:09:34.018Z,1.33
2018-09-25T03:16:05.734Z,0.93
2018-09-25T03:19:15.163Z,1.35
2018-09-25T03:22:22.865Z,0.93
2018-09-25T03:42:31.573Z,1.10
2018-09-25T03:45:38.465Z,1.00
2018-09-25T03:52:10.550Z,1.83
2018-09-25T04:05:45.921Z,1.67
2018-09-25T04:08:52.285Z,1.80
2018-09-25T04:11:58.240Z,1.40
2018-09-25T04:21:56.766Z,1.53
2018-09-25T04:25:04.135Z,1.43
2018-09-25T04:28:09.515Z,1.20
2018-09-25T04:31:15.730Z,1.23
2018-09-25T04:34:21.114Z,1.30
2018-09-25T04:41:07.540Z,2.28
2018-09-25T04:44:14.403Z,1.40
2018-09-25T04:47:21.186Z,1.30
2018-09-25T04:50:27.630Z,1.60
2018-09-25T04:53:33.201Z,1.60
2018-09-25T04:56:39.156Z,1.23
2018-09-25T05:06:33.759Z,1.53
2018-09-25T05:09:39.624Z,1.70
2018-09-25T05:12:46.719Z,1.65
2018-09-25T05:19:16.772Z,1.95
2018-09-25T05:22:22.627Z,2.00
2018-09-25T05:25:29.536Z,1.90
2018-09-25T05:28:34.844Z,2.17
2018-09-25T05:35:06.350Z,3.53
2018-09-25T05:41:36.876Z,2.33
2018-09-25T05:44:43.533Z,2.00
2018-09-25T05:51:14.462Z,1.73
2018-09-25T05:54:21.159Z,1.63
2018-09-25T05:57:28.360Z,1.40
2018-09-25T06:10:47.787Z,1.90
2018-09-25T06:13:54.756Z,1.30
2018-09-25T06:17:01.304Z,1.30
2018-09-25T06:20:08.052Z,1.47
2018-09-25T06:26:38.507Z,2.10
2018-09-25T06:29:44.325Z,1.40
2018-09-25T06:36:17.700Z,2.00
2018-09-25T06:39:23.413Z,1.87
2018-09-25T06:42:30.366Z,2.30
2018-09-25T06:45:35.795Z,1.47
2018-09-25T06:48:42.509Z,1.70
2018-09-25T06:51:48.442Z,1.60
2018-09-25T06:54:55.354Z,1.47
2018-09-25T06:58:01.479Z,1.80
2018-09-25T07:01:13.441Z,1.90
2018-09-25T07:04:19.092Z,1.80
2018-09-25T07:10:49.965Z,1.80
2018-09-25T07:13:56.579Z,2.00
2018-09-25T07:20:31.100Z,1.33
2018-09-25T07:23:37.030Z,1.57
2018-09-25T07:26:42.503Z,1.57
2018-09-25T07:29:49.544Z,1.53
2018-09-25T07:32:55.708Z,1.40
2018-09-25T07:36:02.330Z,1.43
2018-09-25T07:39:12.738Z,1.50
2018-09-25T07:42:20.044Z,1.43
2018-09-25T07:45:33.524Z,1.73
2018-09-25T07:48:43.010Z,1.60
2018-09-25T07:55:22.066Z,1.37
2018-09-25T07:58:43.519Z,1.80
2018-09-25T08:02:04.097Z,1.52
2018-09-25T08:05:09.438Z,1.40
2018-09-25T08:08:23.503Z,1.12
2018-09-25T08:11:30.184Z,1.35
2018-09-25T08:14:46.312Z,1.27
2018-09-25T08:18:11.241Z,1.15
2018-09-25T08:21:17.284Z,1.17
2018-09-25T08:24:23.914Z,1.33
2018-09-25T08:27:29.237Z,1.52
2018-09-25T08:34:01.195Z,1.50
2018-09-25T08:37:06.932Z,1.40
2018-09-25T08:40:12.347Z,1.33
2018-09-25T08:43:18.635Z,1.15
2018-09-25T08:46:24.810Z,1.35
2018-09-25T08:49:30.414Z,1.35
2018-09-25T08:52:38.255Z,1.35
2018-09-25T08:55:58.927Z,1.30
2018-09-25T08:59:06.652Z,1.08
2018-09-25T09:09:00.966Z,1.23
2018-09-25T09:12:07.317Z,1.10
2018-09-25T09:18:39.596Z,1.23
2018-09-25T09:21:45.220Z,1.30
2018-09-25T09:24:52.252Z,1.30
2018-09-25T09:27:58.815Z,1.40
2018-09-25T09:34:37.012Z,1.25
2018-09-25T09:37:44.402Z,1.27
2018-09-25T09:40:50.666Z,1.52
2018-09-25T09:43:57.430Z,0.95
2018-09-25T09:47:14.212Z,1.40
2018-09-25T09:50:26.006Z,1.00
2018-09-25T09:53:47.477Z,1.40
2018-09-25T09:56:55.645Z,1.50
2018-09-25T10:00:01.228Z,1.00
2018-09-25T10:03:08.133Z,1.12
2018-09-25T10:06:16.057Z,1.30
2018-09-25T10:09:23.457Z,1.17
2018-09-25T10:12:29.831Z,0.80
2018-09-25T10:15:38.479Z,1.12
2018-09-25T10:18:44.700Z,0.75
2018-09-25T10:21:50.671Z,0.90
2018-09-25T10:24:57.421Z,1.30
2018-09-25T10:28:03.443Z,1.00
2018-09-25T10:31:09.574Z,1.30
2018-09-25T10:34:15.422Z,0.85
2018-09-25T10:40:57.545Z,1.48
2018-09-25T10:44:03.166Z,1.30
2018-09-25T10:47:10.179Z,0.82
2018-09-25T10:50:16.183Z,1.00
2018-09-25T10:56:48.065Z,0.95
2018-09-25T10:59:56.248Z,1.02
2018-09-25T11:03:03.371Z,1.08
2018-09-25T11:06:15.694Z,1.00
2018-09-25T11:12:47.411Z,1.00
2018-09-25T11:15:54.475Z,1.02
2018-09-25T11:19:05.777Z,1.05
2018-09-25T11:22:12.518Z,1.52
2018-09-25T11:25:18.839Z,1.00
2018-09-25T11:28:26.070Z,0.90
2018-09-25T11:31:34.269Z,1.20
2018-09-25T11:34:40.888Z,1.27
2018-09-25T11:37:48.728Z,1.33
2018-09-25T11:40:55.714Z,0.98
2018-09-25T11:44:05.072Z,0.88
2018-09-25T11:47:11.077Z,1.23
2018-09-25T11:50:30.644Z,1.00
2018-09-25T11:53:36.909Z,1.00
2018-09-25T11:56:45.085Z,1.15
2018-09-25T11:59:52.462Z,1.08
2018-09-25T12:02:58.464Z,1.15
2018-09-25T12:06:08.498Z,0.90
2018-09-25T12:09:16.243Z,0.88
2018-09-25T12:12:29.843Z,1.02
2018-09-25T12:15:40.858Z,1.23
2018-09-25T12:18:47.952Z,0.90
2018-09-25T12:21:55.098Z,0.93
2018-09-25T12:25:02.001Z,0.90
2018-09-25T12:28:07.922Z,0.82
2018-09-25T12:31:20.429Z,1.12
2018-09-25T12:34:32.550Z,1.12
2018-09-25T12:41:06.488Z,0.73
2018-09-25T12:44:14.918Z,0.90
2018-09-25T12:47:26.979Z,1.08
2018-09-25T12:54:00.132Z,1.02
2018-09-25T12:57:07.153Z,0.82
2018-09-25T13:13:56.376Z,0.95
2018-09-25T13:17:04.972Z,0.70
2018-09-25T13:20:14.479Z,0.85
2018-09-25T13:23:21.298Z,0.75
2018-09-25T13:33:22.834Z,1.10
2018-09-25T13:36:35.417Z,0.90
2018-09-25T14:10:36.879Z,0.62
2018-09-25T14:17:13.349Z,0.90
2018-09-25T14:20:19.217Z,0.93
2018-09-25T14:23:26.197Z,0.73
2018-09-25T14:26:34.253Z,0.65
2018-09-25T14:29:40.609Z,0.50
2018-09-25T14:39:38.972Z,1.75
2018-09-25T14:42:46.264Z,0.75
2018-09-25T14:45:53.363Z,0.93
2018-09-25T14:52:26.443Z,0.65
2018-09-25T14:55:31.730Z,0.73
2018-09-25T14:58:40.294Z,0.70
2018-09-25T15:01:44.884Z,0.80
2018-09-25T15:04:53.468Z,0.95
2018-09-25T15:07:59.820Z,0.80
2018-09-25T15:11:05.845Z,0.80
2018-09-25T15:14:13.758Z,0.55
2018-09-25T15:17:19.756Z,0.90
2018-09-25T15:20:25.600Z,1.37
2018-09-25T15:23:31.515Z,0.90
2018-09-25T15:26:38.320Z,0.80
2018-09-25T15:29:45.913Z,0.90
2018-09-25T15:32:55.638Z,0.90
2018-09-25T15:39:30.631Z,0.80
2018-09-25T15:53:09.147Z,0.80
2018-09-25T15:56:23.849Z,0.93
2018-09-25T16:02:54.044Z,1.90
2018-09-25T16:06:02.136Z,1.55
2018-09-25T16:12:34.462Z,1.00
2018-09-25T16:15:43.185Z,0.98
2018-09-25T16:18:49.074Z,0.80
2018-09-25T16:21:59.159Z,0.90
2018-09-25T16:35:18.212Z,0.68
2018-09-25T16:45:13.984Z,1.00
2018-09-25T16:51:47.639Z,0.80
2018-09-25T17:01:57.746Z,1.35
2018-09-25T17:08:28.387Z,0.93
2018-09-25T17:11:41.980Z,1.10
2018-09-25T17:14:48.930Z,1.30
2018-09-25T17:17:54.302Z,1.93
2018-09-25T17:21:01.065Z,1.80
2018-09-25T17:24:06.713Z,1.60
2018-09-25T17:30:37.696Z,1.33
2018-09-25T17:37:08.820Z,1.30
2018-09-25T17:40:14.745Z,0.80
2018-09-25T17:43:21.676Z,0.90
2018-09-25T17:46:43.961Z,1.27
2018-09-25T17:49:50.007Z,1.00
2018-09-25T17:56:21.927Z,1.20
2018-09-25T17:59:27.265Z,1.30
2018-09-25T18:02:33.800Z,1.08
2018-09-25T18:05:39.248Z,1.70
2018-09-25T18:08:45.897Z,1.77
2018-09-25T18:15:16.528Z,1.00
2018-09-25T18:18:22.713Z,1.10
2018-09-25T18:25:08.885Z,1.07
2018-09-25T18:28:19.458Z,1.00
2018-09-25T18:31:27.348Z,1.60
2018-09-25T18:34:33.357Z,1.50
2018-09-25T18:37:39.662Z,1.70
2018-09-25T18:40:46.287Z,1.97
2018-09-25T18:47:18.031Z,2.10
2018-09-25T18:53:50.189Z,1.87
2018-09-25T19:03:25.531Z,1.77
2018-09-25T19:06:15.745Z,1.43
2018-09-25T19:19:26.859Z,1.10
2018-09-25T19:35:59.572Z,1.87
2018-09-25T19:41:55.582Z,1.90
2018-09-25T20:14:53.946Z,1.60
2018-09-25T20:35:27.775Z,2.03
2018-09-25T20:38:33.967Z,2.10
2018-09-25T20:41:39.394Z,1.17
2018-09-25T20:58:25.167Z,2.10
2018-09-25T21:08:21.730Z,2.13
2018-09-25T21:31:57.242Z,2.10
2018-09-25T22:19:31.732Z,2.60
2018-09-25T22:46:29.931Z,2.97
2018-09-25T22:59:51.633Z,2.57
2018-09-25T23:02:57.228Z,2.53
2018-09-25T23:06:03.106Z,2.60
2018-09-25T23:15:58.529Z,3.67
2018-09-25T23:29:22.794Z,3.43
2018-09-25T23:35:55.564Z,3.33
2018-09-25T23:45:27.691Z,3.50
2018-09-25T23:48:16.709Z,3.67
